Columbine Valley, Colorado
Current Conditions -  °F | °C
As of 7:53 AM on Monday 22 Dec 2014 (Local Time) from KAPA Reporting Station
Broken Clouds Broken Clouds  
Wind Chill: 23°   Ceiling: 14000
Heat Index: 28°   Visibility: 10mi
Dew Point: 25°   Wind: 5mph
Humidity: 88%   Direction: 190°S
Pressure: 29.73"   Gusts: NA
Location:  39.5977°N, 105.071°W
Report Text: KAPA 221453Z 19004KT 10SM FEW070 FEW120 BKN140 M02/M04 A2973 RMK AO2 SLP081 T10221039 58001
Loading
Personal Weather Stations






























Interactive Weather Map New forecast layout! Learn more

10-Day Weather Forecast

Advertisements
Track Severe Weather on mobile